createdAt,value
2022-11-01T00:02:04.332Z,1000.7
2022-11-01T00:04:04.271Z,1000.7
2022-11-01T00:06:04.309Z,1000.6
2022-11-01T00:09:04.277Z,1000.6
2022-11-01T00:11:04.290Z,1000.5
2022-11-01T00:14:04.272Z,1000.5
2022-11-01T00:16:04.292Z,1000.5
2022-11-01T00:18:04.404Z,1000.6
2022-11-01T00:20:04.941Z,1000.6
2022-11-01T00:23:04.655Z,1000.5
2022-11-01T00:25:04.322Z,1000.3
2022-11-01T00:28:04.517Z,1000.3
2022-11-01T00:30:04.318Z,1000.4
2022-11-01T00:32:04.326Z,1000.4
2022-11-01T00:34:04.376Z,1000.4
2022-11-01T00:37:04.337Z,1000.4
2022-11-01T00:39:04.568Z,1000.4
2022-11-01T00:42:04.316Z,1000.4
2022-11-01T00:45:04.606Z,1000.3
2022-11-01T00:47:04.389Z,1000.3
2022-11-01T00:50:04.314Z,1000.3
2022-11-01T00:53:04.299Z,1000.2
2022-11-01T00:55:04.296Z,1000.2
2022-11-01T00:58:04.593Z,1000.3
2022-11-01T01:01:04.344Z,1000.3
2022-11-01T01:04:04.310Z,1000.3
2022-11-01T01:06:04.366Z,1000.2
2022-11-01T01:09:04.327Z,1000.3
2022-11-01T01:12:04.336Z,1000.2
2022-11-01T01:15:04.462Z,1000.2
2022-11-01T01:18:04.633Z,1000.2
2022-11-01T01:20:04.305Z,1000.2
2022-11-01T01:22:04.337Z,1000.3
2022-11-01T01:24:04.303Z,1000.2
2022-11-01T01:26:04.373Z,1000.2
2022-11-01T01:29:04.341Z,1000.2
2022-11-01T01:32:04.358Z,1000.3
2022-11-01T01:35:04.341Z,1000.3
2022-11-01T01:38:04.577Z,1000.3
2022-11-01T01:40:04.302Z,1000.3
2022-11-01T01:43:04.317Z,1000.2
2022-11-01T01:46:04.288Z,1000.2
2022-11-01T01:48:04.509Z,1000.2
2022-11-01T01:51:04.272Z,1000.2
2022-11-01T01:53:04.428Z,1000.2
2022-11-01T01:56:04.293Z,1000.2
2022-11-01T01:59:04.278Z,1000.2
2022-11-01T02:02:04.341Z,1000.2
2022-11-01T02:06:04.357Z,1000.1
2022-11-01T02:09:04.381Z,1000.1
2022-11-01T02:11:14.574Z,1000.1
2022-11-01T02:14:24.877Z,1000.1
2022-11-01T02:18:26.551Z,1000.2
2022-11-01T02:20:50.497Z,1000.2
2022-11-01T02:22:53.887Z,1000.3
2022-11-01T02:25:39.514Z,1000.6
2022-11-01T02:28:24.878Z,1000.9
2022-11-01T02:31:25.894Z,1000.7
2022-11-01T02:34:26.584Z,1000.8
2022-11-01T02:37:24.872Z,1000.8
2022-11-01T02:39:24.888Z,1000.6
2022-11-01T02:41:24.952Z,1000.6
2022-11-01T02:44:14.583Z,1000.8
2022-11-01T02:46:14.580Z,1000.7
2022-11-01T02:49:04.307Z,1000.7
2022-11-01T02:52:04.299Z,1000.8
2022-11-01T02:54:18.816Z,1000.8
2022-11-01T02:57:04.304Z,1000.7
2022-11-01T02:59:04.306Z,1000.5
2022-11-01T03:01:04.386Z,1000.5
2022-11-01T03:04:04.321Z,1000.7
2022-11-01T03:07:04.300Z,1000.7
2022-11-01T03:09:04.282Z,1000.7
2022-11-01T03:12:04.302Z,1000.7
2022-11-01T03:14:04.289Z,1000.7
2022-11-01T03:16:04.311Z,1000.7
2022-11-01T03:19:14.593Z,1000.8
2022-11-01T03:22:04.329Z,1000.8
2022-11-01T03:24:04.297Z,1000.8
2022-11-01T03:27:04.308Z,1000.8
2022-11-01T03:29:04.320Z,1000.8
2022-11-01T03:31:04.345Z,1000.8
2022-11-01T03:34:04.311Z,1000.8
2022-11-01T03:36:04.330Z,1000.7
2022-11-01T03:39:04.400Z,1000.8
2022-11-01T03:42:04.308Z,1000.7
2022-11-01T03:44:04.336Z,1000.7
2022-11-01T03:47:04.297Z,1000.8
2022-11-01T03:50:04.321Z,1000.9
2022-11-01T03:52:04.358Z,1000.9
2022-11-01T03:55:04.345Z,1001
2022-11-01T03:58:04.720Z,1001
2022-11-01T04:01:04.379Z,1001
2022-11-01T04:03:14.603Z,1001
2022-11-01T04:06:04.373Z,1001.2
2022-11-01T04:09:04.286Z,1001.3
2022-11-01T04:11:04.285Z,1001.3
2022-11-01T04:13:14.567Z,1001.3
2022-11-01T04:16:04.301Z,1001.4
2022-11-01T04:18:04.409Z,1001.4
2022-11-01T04:21:04.310Z,1001.3
2022-11-01T04:23:04.735Z,1001.2
2022-11-01T04:26:04.314Z,1000.9
2022-11-01T04:29:04.307Z,1001
2022-11-01T04:31:04.373Z,1001.1
2022-11-01T04:34:04.298Z,1001.2
2022-11-01T04:37:04.328Z,1001.2
2022-11-01T04:40:04.325Z,1001.1
2022-11-01T04:42:04.389Z,1001.2
2022-11-01T04:45:04.303Z,1001.1
2022-11-01T04:47:04.317Z,1001.2
2022-11-01T04:50:04.304Z,1001.3
2022-11-01T04:52:04.352Z,1001.3
2022-11-01T04:55:04.365Z,1001.4
2022-11-01T04:57:04.331Z,1001.4
2022-11-01T05:00:04.324Z,1001.5
2022-11-01T05:03:05.013Z,1001.5
2022-11-01T05:06:04.336Z,1001.6
2022-11-01T05:09:04.324Z,1001.6
2022-11-01T05:11:04.319Z,1001.5
2022-11-01T05:13:04.645Z,1001.5
2022-11-01T05:16:19.951Z,1001.6
2022-11-01T05:19:04.325Z,1001.6
2022-11-01T05:21:04.352Z,1001.6
2022-11-01T05:24:04.338Z,1001.7
2022-11-01T05:26:04.342Z,1001.6
2022-11-01T05:29:08.686Z,1001.7
2022-11-01T05:32:04.402Z,1001.7
2022-11-01T05:35:04.354Z,1001.8
2022-11-01T05:37:04.351Z,1002
2022-11-01T05:39:04.356Z,1002
2022-11-01T05:42:04.327Z,1002.1
2022-11-01T05:44:04.321Z,1002.1
2022-11-01T05:47:04.346Z,1002.1
2022-11-01T05:49:04.319Z,1002.1
2022-11-01T05:52:04.321Z,1002.1
2022-11-01T05:54:04.315Z,1002.1
2022-11-01T05:57:04.320Z,1002.2
2022-11-01T06:00:04.356Z,1002.2
2022-11-01T06:03:04.588Z,1002.2
2022-11-01T06:06:04.327Z,1002.3
2022-11-01T06:08:04.339Z,1002.3
2022-11-01T06:11:04.340Z,1002.3
2022-11-01T06:13:04.663Z,1002.3
2022-11-01T06:16:04.406Z,1002.3
2022-11-01T06:18:04.777Z,1002.3
2022-11-01T06:21:04.380Z,1002.4
2022-11-01T06:23:04.422Z,1002.4
2022-11-01T06:26:04.384Z,1002.5
2022-11-01T06:28:04.539Z,1002.5
2022-11-01T06:33:04.753Z,1002.6
2022-11-01T06:35:04.405Z,1002.6
2022-11-01T06:38:04.412Z,1002.6
2022-11-01T06:42:04.382Z,1002.6
2022-11-01T06:44:14.660Z,1002.6
2022-11-01T06:47:45.549Z,1002.6
2022-11-01T06:50:14.665Z,1002.7
2022-11-01T06:52:14.691Z,1002.7
2022-11-01T06:55:04.399Z,1002.8
2022-11-01T06:58:04.606Z,1002.9
2022-11-01T07:00:04.374Z,1002.8
2022-11-01T07:02:04.468Z,1003
2022-11-01T07:05:04.384Z,1003.1
2022-11-01T07:07:04.409Z,1003.1
2022-11-01T07:10:04.411Z,1003
2022-11-01T07:13:04.382Z,1003.2
2022-11-01T07:16:04.382Z,1003.3
2022-11-01T07:19:04.435Z,1003.3
2022-11-01T07:22:04.382Z,1003.2
2022-11-01T07:25:04.380Z,1003.3
2022-11-01T07:27:04.425Z,1003.3
2022-11-01T07:30:04.392Z,1003.4
2022-11-01T07:32:04.422Z,1003.4
2022-11-01T07:35:04.385Z,1003.4
2022-11-01T07:38:06.385Z,1003.4
2022-11-01T07:40:04.409Z,1003.5
2022-11-01T07:42:04.392Z,1003.6
2022-11-01T07:44:04.400Z,1003.6
2022-11-01T07:47:04.393Z,1003.5
2022-11-01T07:49:04.393Z,1003.5
2022-11-01T07:52:04.407Z,1003.5
2022-11-01T07:56:04.391Z,1003.5
2022-11-01T08:00:04.412Z,1003.5
2022-11-01T08:04:04.411Z,1003.5
2022-11-01T08:06:14.754Z,1003.5
2022-11-01T08:09:04.424Z,1003.5
2022-11-01T08:12:04.407Z,1003.6
2022-11-01T08:14:06.167Z,1003.6
2022-11-01T08:16:04.409Z,1003.7
2022-11-01T08:18:14.686Z,1003.6
2022-11-01T08:21:04.416Z,1003.7
2022-11-01T08:24:04.409Z,1003.8
2022-11-01T08:27:04.484Z,1003.8
2022-11-01T08:30:04.478Z,1003.8
2022-11-01T08:33:04.892Z,1003.9
2022-11-01T08:36:04.439Z,1003.9
2022-11-01T08:39:04.459Z,1004
2022-11-01T08:41:04.447Z,1004.1
2022-11-01T08:44:04.461Z,1004.1
2022-11-01T08:46:04.403Z,1004.1
2022-11-01T08:48:04.449Z,1004.1
2022-11-01T08:51:04.419Z,1004.4
2022-11-01T08:54:04.416Z,1004.2
2022-11-01T08:57:04.417Z,1004.2
2022-11-01T09:00:04.442Z,1004.2
2022-11-01T09:02:04.566Z,1004.1
2022-11-01T09:04:04.449Z,1004.1
2022-11-01T09:06:14.724Z,1004.2
2022-11-01T09:09:04.416Z,1004.2
2022-11-01T09:11:04.431Z,1004.1
2022-11-01T09:14:04.417Z,1004.2
2022-11-01T09:16:11.686Z,1004.1
2022-11-01T09:19:04.425Z,1004.3
2022-11-01T09:21:04.411Z,1004.3
2022-11-01T09:24:04.418Z,1004.4
2022-11-01T09:27:04.426Z,1004.4
2022-11-01T09:29:04.419Z,1004.3
2022-11-01T09:31:15.737Z,1004.4
2022-11-01T09:34:04.415Z,1004.4
2022-11-01T09:37:04.432Z,1004.3
2022-11-01T09:40:04.434Z,1004.3
2022-11-01T09:43:04.815Z,1004.2
2022-11-01T09:46:04.424Z,1004.3
2022-11-01T09:48:04.735Z,1004.2
2022-11-01T09:50:04.438Z,1004.2
2022-11-01T09:52:04.430Z,1004.2
2022-11-01T09:55:07.042Z,1004.5
2022-11-01T09:58:04.692Z,1004.4
2022-11-01T10:00:04.443Z,1004.4
2022-11-01T10:03:04.499Z,1004.5
2022-11-01T10:06:04.457Z,1004.5
2022-11-01T10:10:04.422Z,1004.6
2022-11-01T10:12:14.737Z,1004.5
2022-11-01T10:15:04.456Z,1004.6
2022-11-01T10:17:04.421Z,1004.6
2022-11-01T10:20:04.506Z,1004.5
2022-11-01T10:22:04.468Z,1004.5
2022-11-01T10:24:14.741Z,1004.5
2022-11-01T10:27:04.440Z,1004.5
2022-11-01T10:29:04.448Z,1004.5
2022-11-01T10:32:04.434Z,1004.5
2022-11-01T10:34:04.485Z,1004.5
2022-11-01T10:37:04.427Z,1004.5
2022-11-01T10:42:04.459Z,1004.4
2022-11-01T10:45:04.429Z,1004.6
2022-11-01T10:47:04.454Z,1004.5
2022-11-01T10:49:04.435Z,1004.5
2022-11-01T10:52:04.435Z,1004.6
2022-11-01T10:54:04.475Z,1004.5
2022-11-01T10:56:04.499Z,1004.5
2022-11-01T10:59:04.459Z,1004.5
2022-11-01T11:01:04.471Z,1004.5
2022-11-01T11:03:04.504Z,1004.6
2022-11-01T11:06:04.449Z,1004.5
2022-11-01T11:08:04.708Z,1004.5
2022-11-01T11:11:04.461Z,1004.5
2022-11-01T11:14:04.424Z,1004.8
2022-11-01T11:16:04.422Z,1004.7
2022-11-01T11:18:04.465Z,1004.7
2022-11-01T11:22:04.469Z,1004.7
2022-11-01T11:24:14.732Z,1004.7
2022-11-01T11:27:04.483Z,1004.8
2022-11-01T11:30:04.439Z,1004.9
2022-11-01T11:33:04.432Z,1004.9
2022-11-01T11:36:04.459Z,1004.9
2022-11-01T11:38:04.759Z,1004.9
2022-11-01T11:40:04.451Z,1004.9
2022-11-01T11:43:04.444Z,1004.8
2022-11-01T11:45:04.461Z,1004.7
2022-11-01T11:47:04.438Z,1004.7
2022-11-01T11:50:04.466Z,1004.7
2022-11-01T11:52:04.452Z,1004.7
2022-11-01T11:55:04.521Z,1004.8
2022-11-01T11:58:04.868Z,1004.7
2022-11-01T12:00:04.478Z,1004.7
2022-11-01T12:03:04.753Z,1004.9
2022-11-01T12:06:04.449Z,1005
2022-11-01T12:08:04.447Z,1005
2022-11-01T12:11:04.461Z,1004.9
2022-11-01T12:14:04.443Z,1005.1
2022-11-01T12:16:04.478Z,1004.9
2022-11-01T12:19:04.462Z,1004.8
2022-11-01T12:21:04.453Z,1004.7
2022-11-01T12:23:04.469Z,1004.7
2022-11-01T12:25:04.455Z,1004.7
2022-11-01T12:28:04.705Z,1004.7
2022-11-01T12:30:04.465Z,1004.7
2022-11-01T12:36:04.461Z,1004.8
2022-11-01T12:38:14.793Z,1004.9
2022-11-01T12:40:26.728Z,1004.8
2022-11-01T12:43:26.710Z,1004.7
2022-11-01T12:46:14.769Z,1004.7
2022-11-01T12:49:04.468Z,1004.8
2022-11-01T12:51:04.513Z,1004.8
2022-11-01T12:54:04.485Z,1004.8
2022-11-01T12:57:04.463Z,1004.8
2022-11-01T12:59:04.476Z,1004.8
2022-11-01T13:01:04.542Z,1004.8
2022-11-01T13:04:04.519Z,1004.8
2022-11-01T13:07:04.506Z,1004.8
2022-11-01T13:10:04.575Z,1004.8
2022-11-01T13:13:04.659Z,1004.8
2022-11-01T13:16:04.497Z,1004.8
2022-11-01T13:21:04.502Z,1004.8
2022-11-01T13:23:14.772Z,1004.8
2022-11-01T13:25:14.813Z,1004.8
2022-11-01T13:28:04.454Z,1004.8
2022-11-01T13:30:04.507Z,1004.8
2022-11-01T13:33:04.694Z,1004.9
2022-11-01T13:35:04.500Z,1005
2022-11-01T13:37:04.530Z,1005
2022-11-01T13:40:04.500Z,1005.1
2022-11-01T13:43:04.876Z,1005.2
2022-11-01T13:46:04.472Z,1005.2
2022-11-01T13:48:04.731Z,1005.2
2022-11-01T13:51:04.468Z,1005.2
2022-11-01T13:53:04.471Z,1005.1
2022-11-01T13:55:04.480Z,1005.1
2022-11-01T13:58:04.770Z,1005.1
2022-11-01T14:00:04.487Z,1005.1
2022-11-01T14:03:04.465Z,1005.1
2022-11-01T14:05:04.457Z,1005.1
2022-11-01T14:07:05.055Z,1005.1
2022-11-01T14:09:04.483Z,1005.2
2022-11-01T14:11:04.490Z,1005.2
2022-11-01T14:14:04.480Z,1005.1
2022-11-01T14:17:04.472Z,1005.1
2022-11-01T14:19:04.484Z,1005
2022-11-01T14:22:04.480Z,1005
2022-11-01T14:24:04.509Z,1005
2022-11-01T14:27:04.485Z,1005.1
2022-11-01T14:29:04.507Z,1005
2022-11-01T14:31:04.583Z,1004.9
2022-11-01T14:34:04.514Z,1005
2022-11-01T14:36:12.376Z,1005
2022-11-01T14:39:04.522Z,1005
2022-11-01T14:42:04.481Z,1005.1
2022-11-01T14:44:04.519Z,1005
2022-11-01T14:46:14.781Z,1005
2022-11-01T14:49:04.485Z,1005
2022-11-01T14:51:04.517Z,1005
2022-11-01T14:53:04.643Z,1005.1
2022-11-01T14:55:04.521Z,1005.1
2022-11-01T14:57:04.496Z,1005.1
2022-11-01T15:00:15.907Z,1005.1
2022-11-01T15:03:14.777Z,1005.2
2022-11-01T15:07:04.535Z,1005.1
2022-11-01T15:09:04.580Z,1005.2
2022-11-01T15:12:04.539Z,1005.2
2022-11-01T15:14:14.784Z,1005.2
2022-11-01T15:17:04.488Z,1005.2
2022-11-01T15:19:26.782Z,1005.2
2022-11-01T15:22:14.796Z,1005.2
2022-11-01T15:25:04.539Z,1005.3
2022-11-01T15:27:04.540Z,1005.3
2022-11-01T15:31:04.535Z,1005.3
2022-11-01T15:33:25.057Z,1005.3
2022-11-01T15:35:25.089Z,1005.3
2022-11-01T15:39:04.519Z,1005.4
2022-11-01T15:43:04.930Z,1005.3
2022-11-01T15:45:25.094Z,1005.3
2022-11-01T15:48:14.799Z,1005.4
2022-11-01T15:51:04.520Z,1005.3
2022-11-01T15:55:04.507Z,1005.3
2022-11-01T15:57:14.785Z,1005.3
2022-11-01T16:00:04.611Z,1005.3
2022-11-01T16:03:04.845Z,1005.3
2022-11-01T16:05:25.086Z,1005.4
2022-11-01T16:08:04.550Z,1005.4
2022-11-01T16:11:04.501Z,1005.4
2022-11-01T16:13:04.942Z,1005.4
2022-11-01T16:16:14.825Z,1005.5
2022-11-01T16:20:04.600Z,1005.5
2022-11-01T16:24:09.387Z,1005.5
2022-11-01T16:26:14.799Z,1005.6
2022-11-01T16:28:14.816Z,1005.6
2022-11-01T16:31:04.533Z,1005.6
2022-11-01T16:34:04.528Z,1005.7
2022-11-01T16:36:04.587Z,1005.7
2022-11-01T16:38:04.892Z,1005.7
2022-11-01T16:41:04.517Z,1005.8
2022-11-01T16:43:04.528Z,1005.9
2022-11-01T16:46:04.565Z,1005.8
2022-11-01T16:48:04.859Z,1005.9
2022-11-01T16:50:04.559Z,1005.9
2022-11-01T16:53:04.536Z,1006
2022-11-01T16:55:04.561Z,1006
2022-11-01T16:58:04.699Z,1006
2022-11-01T17:00:04.609Z,1006
2022-11-01T17:03:04.923Z,1006
2022-11-01T17:06:04.553Z,1006
2022-11-01T17:09:04.530Z,1006
2022-11-01T17:11:04.529Z,1006
2022-11-01T17:13:04.525Z,1006
2022-11-01T17:16:04.611Z,1006
2022-11-01T17:20:04.536Z,1006
2022-11-01T17:23:04.595Z,1006.1
2022-11-01T17:26:04.522Z,1006.2
2022-11-01T17:29:04.566Z,1006.2
2022-11-01T17:31:04.562Z,1006.2
2022-11-01T17:34:04.532Z,1006.2
2022-11-01T17:36:04.543Z,1006.3
2022-11-01T17:39:04.554Z,1006.3
2022-11-01T17:41:04.585Z,1006.2
2022-11-01T17:44:04.548Z,1006.3
2022-11-01T17:46:04.548Z,1006.3
2022-11-01T17:49:04.569Z,1006.2
2022-11-01T17:52:04.543Z,1006.2
2022-11-01T17:55:04.558Z,1006.3
2022-11-01T17:57:04.563Z,1006.3
2022-11-01T18:00:04.577Z,1006.3
2022-11-01T18:03:04.539Z,1006.3
2022-11-01T18:05:04.576Z,1006.3
2022-11-01T18:07:14.379Z,1006.3
2022-11-01T18:11:04.604Z,1006.4
2022-11-01T18:15:04.569Z,1006.3
2022-11-01T18:17:14.856Z,1006.4
2022-11-01T18:20:04.570Z,1006.4
2022-11-01T18:22:04.562Z,1006.4
2022-11-01T18:25:04.570Z,1006.4
2022-11-01T18:28:04.917Z,1006.4
2022-11-01T18:31:04.594Z,1006.3
2022-11-01T18:33:04.576Z,1006.4
2022-11-01T18:35:04.822Z,1006.4
2022-11-01T18:38:04.844Z,1006.4
2022-11-01T18:40:04.568Z,1006.4
2022-11-01T18:43:20.457Z,1006.3
2022-11-01T18:45:04.583Z,1006.4
2022-11-01T18:48:04.877Z,1006.3
2022-11-01T18:50:04.584Z,1006.3
2022-11-01T18:52:04.613Z,1006.3
2022-11-01T18:55:04.593Z,1006.3
2022-11-01T18:57:04.581Z,1006.3
2022-11-01T19:00:04.575Z,1006.3
2022-11-01T19:02:04.752Z,1006.3
2022-11-01T19:05:04.583Z,1006.3
2022-11-01T19:08:10.719Z,1006.3
2022-11-01T19:11:04.575Z,1006.4
2022-11-01T19:13:04.579Z,1006.4
2022-11-01T19:15:04.561Z,1006.3
2022-11-01T19:17:04.545Z,1006.3
2022-11-01T19:19:04.598Z,1006.4
2022-11-01T19:22:04.602Z,1006.3
2022-11-01T19:24:08.396Z,1006.3
2022-11-01T19:27:04.545Z,1006.3
2022-11-01T19:29:04.580Z,1006.3
2022-11-01T19:32:04.584Z,1006.3
2022-11-01T19:35:04.552Z,1006.3
2022-11-01T19:37:14.852Z,1006.4
2022-11-01T19:40:04.574Z,1006.4
2022-11-01T19:43:04.729Z,1006.4
2022-11-01T19:45:04.579Z,1006.4
2022-11-01T19:48:04.861Z,1006.4
2022-11-01T19:50:14.844Z,1006.4
2022-11-01T19:52:14.886Z,1006.4
2022-11-01T19:55:04.546Z,1006.5
2022-11-01T19:57:04.583Z,1006.5
2022-11-01T19:59:14.864Z,1006.5
2022-11-01T20:01:14.981Z,1006.5
2022-11-01T20:05:07.338Z,1006.5
2022-11-01T20:07:14.859Z,1006.5
2022-11-01T20:11:04.565Z,1006.6
2022-11-01T20:13:05.040Z,1006.6
2022-11-01T20:16:14.899Z,1006.6
2022-11-01T20:18:14.877Z,1006.6
2022-11-01T20:21:04.590Z,1006.7
2022-11-01T20:24:04.589Z,1006.7
2022-11-01T20:27:04.585Z,1006.7
2022-11-01T20:29:14.901Z,1006.8
2022-11-01T20:32:04.570Z,1006.9
2022-11-01T20:35:04.580Z,1006.8
2022-11-01T20:38:04.576Z,1006.9
2022-11-01T20:40:04.571Z,1006.8
2022-11-01T20:43:05.036Z,1006.9
2022-11-01T20:46:04.568Z,1006.9
2022-11-01T20:48:04.594Z,1006.9
2022-11-01T20:51:04.594Z,1007
2022-11-01T20:54:04.592Z,1006.9
2022-11-01T20:56:04.825Z,1007
2022-11-01T20:59:04.632Z,1007
2022-11-01T21:01:04.695Z,1007
2022-11-01T21:04:04.615Z,1007
2022-11-01T21:06:04.603Z,1007.1
2022-11-01T21:09:04.581Z,1007.1
2022-11-01T21:11:04.597Z,1007.1
2022-11-01T21:14:04.604Z,1007.1
2022-11-01T21:16:04.600Z,1007.2
2022-11-01T21:18:04.600Z,1007.2
2022-11-01T21:21:04.616Z,1007.2
2022-11-01T21:23:04.944Z,1007.2
2022-11-01T21:25:04.611Z,1007.2
2022-11-01T21:27:04.616Z,1007.3
2022-11-01T21:30:04.603Z,1007.3
2022-11-01T21:33:04.620Z,1007.3
2022-11-01T21:36:04.607Z,1007.3
2022-11-01T21:38:04.828Z,1007.3
2022-11-01T21:41:04.610Z,1007.3
2022-11-01T21:43:04.642Z,1007.3
2022-11-01T21:46:04.642Z,1007.3
2022-11-01T21:49:04.602Z,1007.3
2022-11-01T21:51:14.938Z,1007.3
2022-11-01T21:54:04.794Z,1007.4
2022-11-01T21:56:04.609Z,1007.3
2022-11-01T21:59:05.663Z,1007.3
2022-11-01T22:01:04.654Z,1007.3
2022-11-01T22:04:04.585Z,1007.3
2022-11-01T22:06:04.606Z,1007.3
2022-11-01T22:08:11.804Z,1007.3
2022-11-01T22:11:04.623Z,1007.4
2022-11-01T22:14:04.575Z,1007.3
2022-11-01T22:16:04.609Z,1007.3
2022-11-01T22:19:04.630Z,1007.2
2022-11-01T22:21:04.589Z,1007.3
2022-11-01T22:24:04.610Z,1007.3
2022-11-01T22:27:04.617Z,1007.3
2022-11-01T22:30:04.591Z,1007.3
2022-11-01T22:32:04.603Z,1007.3
2022-11-01T22:35:04.628Z,1007.3
2022-11-01T22:39:04.617Z,1007.3
2022-11-01T22:41:04.628Z,1007.3
2022-11-01T22:44:04.605Z,1007.4
2022-11-01T22:47:04.639Z,1007.3
2022-11-01T22:50:14.867Z,1007.4
2022-11-01T22:54:04.901Z,1007.2
2022-11-01T22:57:04.604Z,1007.3
2022-11-01T22:59:04.645Z,1007.3
2022-11-01T23:02:04.695Z,1007.3
2022-11-01T23:05:04.618Z,1007.3
2022-11-01T23:07:04.648Z,1007.2
2022-11-01T23:10:04.651Z,1007.3
2022-11-01T23:12:04.600Z,1007.2
2022-11-01T23:15:04.644Z,1007.3
2022-11-01T23:18:04.639Z,1007.3
2022-11-01T23:21:04.603Z,1007.3
2022-11-01T23:24:04.597Z,1007.3
2022-11-01T23:26:04.598Z,1007.3
2022-11-01T23:28:04.594Z,1007.3
2022-11-01T23:31:04.605Z,1007.3
2022-11-01T23:34:04.593Z,1007.2
2022-11-01T23:37:04.623Z,1007.3
2022-11-01T23:40:04.683Z,1007.3
2022-11-01T23:43:04.802Z,1007.3
2022-11-01T23:45:07.728Z,1007.3
2022-11-01T23:47:04.632Z,1007.2
2022-11-01T23:49:25.180Z,1007.2
2022-11-01T23:52:14.898Z,1007.2
2022-11-01T23:55:04.621Z,1007.2
2022-11-01T23:59:04.624Z,1007.2
